Relevés horaires Gösgen (Suisse)


Relevés horaires à Gösgen - Lundi 16 Juill. 2018
Heure UTC1 Température [°C] Vent [km/h] Hum. [%] Pres.4 [hPa] Visi. [Km] Nébu. [octa] Préc.5 [mm] Cond.
2m. Res. Ros. Dir.2 Vit. Moy. Raf.3
23:00 17.2 17.2 13.2 NE 1.9 -- -- 77 1014.5 -- -- -- --
22:00 18.4 18.4 12.9 ENE 1.9 -- -- 70 1013.6 -- -- -- --
21:00 19.2 19.2 12.1 ESE 5.6 -- 24.1 63 1013.1(2.6/3h) -- -- -- --
20:00 21.8 21.8 12.6 E 9.3 -- -- 56 1012.1 -- -- -- --
19:00 24.4 24.4 11.1 ENE 9.3 -- -- 43 1010.4 -- -- -- --
18:00 26.6 26.6 10.6 NO 7.4 -- 33.3 37 1009.2(0.1/3h) -- -- 0/12h
--
17:00 28.0 28.0 8.9 O 9.3 -- -- 30 1008.5 -- -- -- --
16:00 28.3 28.3 10.0 NO 11.1 -- -- 32 1008.6 -- -- -- --
15:00 28.6 28.6 8.9 NNO 14.8 -- 25.9 29 1008.8(-1.5/3h) -- -- -- --
14:00 29.8 29.8 10.7 NNO 9.3 -- -- 31 1008.9 -- -- -- --
13:00 28.2 28.2 11.0 O 9.3 -- -- 34 1009.7 -- -- -- --
12:00 28.0 28.0 13.1 O 7.4 -- 18.5 40 1010.5(-2.0/3h) -- -- 0/6h
--
11:00 25.9 25.9 13.5 SSE 3.7 -- -- 46 1011.5 -- -- -- --
10:00 24.0 24.0 12.4 SSO 5.6 -- -- 48 1012.7 -- -- -- --
09:00 22.0 22.0 13.8 S 3.7 -- 11.1 60 1013.5(-1.4/3h) -- -- -- --
08:00 19.5 19.5 14.6 NNE 1.9 -- -- 73 1014.2 -- -- -- --
07:00 17.9 17.9 14.5 ENE 3.7 -- -- 81 1015.4 -- -- -- --
06:00 16.6 16.6 14.5 SSO 5.6 -- 16.7 87 1015.8(0.1/3h) -- -- 0/12h
0/24h
--
05:00 15.9 15.9 14.6 O 3.7 -- -- 92 1016.1 -- -- -- --
04:00 15.4 15.4 13.9 SO 0.0 -- -- 91 1016 -- -- -- --
03:00 14.7 14.7 13.4 SSO 0.0 -- 9.3 92 1016(-0.4/3h) -- -- -- --
02:00 14.6 14.6 13.3 S 1.9 -- -- 92 1016.2 -- -- -- --
01:00 14.5 14.5 13.2 SO 1.9 -- -- 92 1016.3 -- -- -- --
00:00 15.3 15.3 13.7 SSO 3.7 -- 33.3 90 1016.4(-0.9/3h) -- -- 0/6h
--

1 Coordinated Universal Time. Actuellement il est 18:00 locale et 16:00 UTC.

2 Le vent souffle depuis la direction indiquée vers la direction oposée.

3 Les rafales max. sont disponible 40 min après l'heure du relevé.

4 Pour les stations d'altitude (plus de 600m) le géopotentiel du niveau le plus proche de la pression obligatoire est indiqué.

5 Les stations disposant d'un diffuseur peuvent indiquer "trace". Cela signifie que des précipitations ont touchés le sol mais que la quantité est inférieure à 0.1 mm.

Récapitulatif de la journée
Température [°C] Vent [km/h] Ensoleillement4 [h] Precipitations totale5 [mm] Pression [Hpa]
Min1 Max.2 Moy.3 Max. Min Max.
14.2 29.8 0 33.3 11 h 54 min 0 1008.5 1016.4

1 Température minimale relevée entre 18:00 UTC la veille et 18:00 UTC le jour donné.

2 Température maximale relevée entre 06:00 UTC le jour donné et 06:00 UTC le lendemain.

3 Vent moyen de la journée basé sur les relevés horaires.

4 Ensoleillement en heures relevé entre 06:00 UTC la veille et 06:00 UTC le jour donné.

5 Précipitations totales tombées entre 06:00 UTC la jour donné et 06:00 UTC le lendemain.

Graphiques horaires